createdAt,value
2023-03-10T00:00:13.855Z,53.04
2023-03-10T00:02:40.282Z,52.84
2023-03-10T00:05:06.546Z,53.00
2023-03-10T00:07:33.004Z,52.86
2023-03-10T00:09:59.370Z,53.00
2023-03-10T00:12:26.119Z,52.66
2023-03-10T00:14:52.567Z,52.53
2023-03-10T00:17:19.024Z,52.70
2023-03-10T00:19:45.435Z,52.56
2023-03-10T00:22:11.763Z,52.62
2023-03-10T00:24:38.173Z,52.67
2023-03-10T00:27:04.825Z,52.53
2023-03-10T00:29:31.251Z,52.50
2023-03-10T00:31:57.556Z,52.53
2023-03-10T00:34:24.322Z,52.56
2023-03-10T00:36:50.714Z,52.39
2023-03-10T00:39:17.061Z,52.48
2023-03-10T00:41:43.421Z,52.47
2023-03-10T00:44:09.786Z,52.24
2023-03-10T00:46:36.384Z,52.45
2023-03-10T00:49:02.866Z,52.38
2023-03-10T00:51:29.400Z,52.36
2023-03-10T00:53:55.837Z,52.39
2023-03-10T00:56:22.577Z,52.49
2023-03-10T00:58:48.996Z,52.37
2023-03-10T01:01:15.405Z,52.34
2023-03-10T01:03:41.742Z,52.19
2023-03-10T01:06:08.398Z,52.22
2023-03-10T01:08:34.817Z,52.21
2023-03-10T01:11:01.134Z,52.16
2023-03-10T01:13:27.457Z,52.38
2023-03-10T01:15:54.295Z,52.12
2023-03-10T01:18:20.818Z,52.64
2023-03-10T01:20:47.293Z,52.31
2023-03-10T01:23:13.824Z,52.18
2023-03-10T01:25:40.168Z,52.25
2023-03-10T01:28:06.596Z,52.30
2023-03-10T01:30:33.001Z,52.00
2023-03-10T01:32:59.338Z,52.10
2023-03-10T01:35:25.883Z,52.27
2023-03-10T01:37:52.692Z,52.26
2023-03-10T01:40:19.314Z,52.03
2023-03-10T01:42:45.795Z,52.07
2023-03-10T01:45:12.550Z,52.13
2023-03-10T01:47:38.865Z,52.21
2023-03-10T01:50:05.264Z,52.21
2023-03-10T01:52:31.991Z,51.89
2023-03-10T01:54:58.286Z,52.31
2023-03-10T01:57:24.606Z,52.28
2023-03-10T01:59:51.154Z,52.32
2023-03-10T02:02:17.889Z,52.01
2023-03-10T02:04:45.085Z,52.11
2023-03-10T02:07:11.399Z,52.08
2023-03-10T02:09:37.823Z,52.17
2023-03-10T02:12:04.910Z,52.01
2023-03-10T02:14:31.353Z,52.26
2023-03-10T02:16:57.812Z,52.33
2023-03-10T02:19:24.275Z,52.26
2023-03-10T02:21:50.791Z,52.21
2023-03-10T02:24:17.121Z,52.25
2023-03-10T02:26:43.686Z,52.11
2023-03-10T02:29:10.195Z,52.19
2023-03-10T02:31:36.493Z,52.11
2023-03-10T02:34:02.867Z,52.06
2023-03-10T02:36:29.243Z,52.15
2023-03-10T02:38:55.798Z,52.23
2023-03-10T02:41:22.149Z,52.25
2023-03-10T02:43:48.520Z,52.29
2023-03-10T02:46:15.161Z,52.08
2023-03-10T02:48:41.570Z,52.28
2023-03-10T02:51:07.889Z,52.08
2023-03-10T02:53:34.247Z,52.14
2023-03-10T02:56:00.655Z,52.15
2023-03-10T02:58:27.266Z,52.05
2023-03-10T03:00:53.711Z,52.22
2023-03-10T03:03:20.870Z,52.35
2023-03-10T03:05:47.209Z,52.16
2023-03-10T03:08:13.603Z,52.25
2023-03-10T03:10:39.980Z,52.21
2023-03-10T03:13:06.463Z,52.26
2023-03-10T03:15:33.427Z,52.31
2023-03-10T03:18:00.047Z,52.49
2023-03-10T03:20:26.792Z,52.59
2023-03-10T03:22:53.173Z,52.29
2023-03-10T03:25:19.756Z,52.21
2023-03-10T03:27:46.292Z,52.53
2023-03-10T03:30:13.555Z,52.30
2023-03-10T03:32:40.063Z,52.45
2023-03-10T03:35:06.772Z,52.29
2023-03-10T03:37:33.139Z,52.33
2023-03-10T03:40:00.002Z,52.37
2023-03-10T03:42:26.855Z,52.59
2023-03-10T03:44:53.417Z,52.56
2023-03-10T03:47:20.001Z,52.27
2023-03-10T03:49:46.706Z,52.57
2023-03-10T03:52:13.138Z,52.62
2023-03-10T03:54:39.629Z,52.31
2023-03-10T03:57:06.314Z,52.39
2023-03-10T03:59:32.702Z,52.67
2023-03-10T04:01:59.096Z,52.64
2023-03-10T04:04:25.608Z,52.68
2023-03-10T04:06:52.323Z,52.69
2023-03-10T04:09:18.731Z,52.59
2023-03-10T04:11:45.254Z,52.54
2023-03-10T04:14:11.663Z,52.68
2023-03-10T04:16:38.406Z,52.57
2023-03-10T04:19:05.102Z,52.57
2023-03-10T04:21:31.531Z,52.70
2023-03-10T04:23:57.933Z,52.68
2023-03-10T04:26:24.568Z,52.59
2023-03-10T04:28:50.975Z,52.66
2023-03-10T04:31:17.685Z,52.71
2023-03-10T04:33:44.665Z,52.79
2023-03-10T04:36:11.135Z,52.81
2023-03-10T04:38:37.619Z,52.69
2023-03-10T04:41:04.121Z,52.71
2023-03-10T04:43:30.706Z,52.67
2023-03-10T04:45:57.087Z,52.83
2023-03-10T04:48:23.410Z,52.65
2023-03-10T04:50:49.777Z,52.88
2023-03-10T04:53:16.194Z,53.01
2023-03-10T04:55:42.607Z,52.80
2023-03-10T04:58:09.102Z,52.92
2023-03-10T05:00:35.500Z,52.61
2023-03-10T05:03:02.070Z,52.75
2023-03-10T05:05:28.529Z,52.74
2023-03-10T05:07:55.145Z,52.95
2023-03-10T05:10:21.650Z,53.00
2023-03-10T05:12:48.605Z,52.71
2023-03-10T05:15:15.027Z,53.10
2023-03-10T05:17:41.422Z,52.89
2023-03-10T05:20:07.957Z,52.79
2023-03-10T05:22:34.255Z,52.94
2023-03-10T05:25:01.164Z,53.05
2023-03-10T05:27:27.942Z,52.83
2023-03-10T05:29:54.337Z,53.09
2023-03-10T05:32:21.041Z,52.87
2023-03-10T05:34:47.456Z,52.84
2023-03-10T05:37:13.920Z,52.90
2023-03-10T05:39:40.796Z,52.94
2023-03-10T05:42:07.599Z,52.82
2023-03-10T05:44:34.000Z,53.12
2023-03-10T05:47:00.507Z,53.00
2023-03-10T05:49:27.319Z,52.99
2023-03-10T05:51:53.679Z,53.10
2023-03-10T05:54:20.143Z,53.14
2023-03-10T05:56:46.623Z,53.04
2023-03-10T05:59:13.079Z,53.06
2023-03-10T06:01:39.757Z,53.26
2023-03-10T06:04:06.397Z,53.31
2023-03-10T06:06:33.450Z,53.28
2023-03-10T06:08:59.771Z,53.31
2023-03-10T06:11:26.438Z,54.83
2023-03-10T06:13:52.816Z,56.07
2023-03-10T06:16:19.207Z,56.66
2023-03-10T06:18:45.757Z,58.81
2023-03-10T06:21:12.904Z,57.51
2023-03-10T06:23:39.397Z,57.72
2023-03-10T06:26:06.111Z,57.46
2023-03-10T06:28:32.613Z,57.49
2023-03-10T06:30:58.959Z,57.33
2023-03-10T06:33:25.445Z,57.17
2023-03-10T06:35:52.043Z,57.10
2023-03-10T06:38:18.788Z,57.06
2023-03-10T06:40:45.732Z,56.82
2023-03-10T06:43:12.229Z,56.88
2023-03-10T06:45:39.204Z,56.67
2023-03-10T06:48:05.576Z,56.68
2023-03-10T06:50:31.883Z,56.50
2023-03-10T06:52:58.588Z,56.36
2023-03-10T06:55:25.082Z,56.35
2023-03-10T06:57:51.642Z,56.42
2023-03-10T07:00:18.389Z,56.43
2023-03-10T07:02:44.781Z,56.27
2023-03-10T07:05:11.268Z,56.32
2023-03-10T07:07:37.737Z,56.56
2023-03-10T07:10:06.984Z,56.50
2023-03-10T07:12:34.810Z,56.20
2023-03-10T07:15:01.351Z,56.09
2023-03-10T07:17:27.784Z,55.95
2023-03-10T07:19:54.224Z,56.00
2023-03-10T07:22:20.556Z,55.84
2023-03-10T07:24:46.873Z,56.10
2023-03-10T07:27:13.297Z,56.09
2023-03-10T07:29:40.077Z,56.12
2023-03-10T07:32:06.412Z,56.12
2023-03-10T07:34:32.992Z,56.14
2023-03-10T07:36:59.494Z,55.94
2023-03-10T07:39:25.929Z,56.13
2023-03-10T07:41:52.302Z,56.28
2023-03-10T07:44:18.680Z,56.17
2023-03-10T07:46:45.272Z,56.22
2023-03-10T07:49:11.643Z,56.14
2023-03-10T07:51:38.095Z,56.19
2023-03-10T07:54:04.422Z,56.20
2023-03-10T07:56:31.411Z,56.07
2023-03-10T07:58:58.265Z,56.17
2023-03-10T08:01:24.733Z,56.41
2023-03-10T08:03:51.110Z,56.48
2023-03-10T08:06:17.957Z,56.30
2023-03-10T08:08:44.338Z,56.41
2023-03-10T08:11:10.952Z,56.30
2023-03-10T08:13:37.809Z,56.37
2023-03-10T08:16:04.378Z,56.46
2023-03-10T08:18:31.144Z,56.48
2023-03-10T08:20:57.579Z,56.45
2023-03-10T08:23:24.012Z,56.46
2023-03-10T08:25:50.325Z,56.42
2023-03-10T08:28:17.091Z,56.46
2023-03-10T08:30:57.296Z,56.59
2023-03-10T08:33:29.763Z,56.44
2023-03-10T08:35:56.227Z,56.51
2023-03-10T08:38:23.334Z,56.48
2023-03-10T08:40:49.693Z,56.59
2023-03-10T08:43:16.128Z,56.75
2023-03-10T08:45:42.563Z,56.54
2023-03-10T08:48:09.081Z,56.70
2023-03-10T08:50:35.842Z,56.77
2023-03-10T08:53:02.889Z,56.67
2023-03-10T08:55:29.478Z,56.74
2023-03-10T08:57:55.893Z,56.78
2023-03-10T09:00:22.437Z,56.74
2023-03-10T09:02:48.802Z,56.77
2023-03-10T09:05:15.233Z,56.97
2023-03-10T09:07:41.576Z,56.85
2023-03-10T09:10:08.206Z,57.20
2023-03-10T09:12:39.060Z,57.19
2023-03-10T09:15:06.033Z,56.98
2023-03-10T09:17:32.378Z,56.90
2023-03-10T09:19:59.191Z,57.01
2023-03-10T09:22:25.624Z,57.08
2023-03-10T09:24:52.075Z,57.07
2023-03-10T09:27:19.120Z,57.02
2023-03-10T09:32:12.958Z,57.11
2023-03-10T09:34:39.703Z,57.11
2023-03-10T09:37:08.197Z,57.15
2023-03-10T09:39:35.295Z,57.26
2023-03-10T09:42:01.654Z,57.20
2023-03-10T09:44:28.051Z,57.33
2023-03-10T09:46:54.408Z,57.25
2023-03-10T09:49:20.686Z,57.23
2023-03-10T09:51:47.847Z,57.37
2023-03-10T09:54:14.683Z,57.37
2023-03-10T09:56:41.580Z,57.54
2023-03-10T09:59:08.235Z,57.49
2023-03-10T10:01:34.733Z,57.48
2023-03-10T10:04:01.726Z,57.53
2023-03-10T10:06:29.072Z,57.58
2023-03-10T10:09:04.266Z,57.65
2023-03-10T10:11:31.197Z,57.44
2023-03-10T10:13:59.097Z,57.59
2023-03-10T10:16:34.259Z,57.61
2023-03-10T10:19:01.391Z,57.70
2023-03-10T10:21:33.587Z,57.81
2023-03-10T10:24:07.640Z,57.83
2023-03-10T10:26:34.231Z,59.03
2023-03-10T10:29:00.566Z,57.68
2023-03-10T10:31:27.038Z,57.84
2023-03-10T10:33:53.582Z,57.74
2023-03-10T10:36:19.988Z,57.63
2023-03-10T10:38:46.575Z,57.56
2023-03-10T10:41:13.084Z,57.68
2023-03-10T10:43:39.455Z,57.76
2023-03-10T10:46:05.985Z,57.50
2023-03-10T10:48:32.399Z,57.72
2023-03-10T10:50:59.528Z,57.39
2023-03-10T10:53:26.532Z,57.57
2023-03-10T10:55:53.134Z,57.54
2023-03-10T10:58:19.987Z,57.54
2023-03-10T11:00:46.343Z,57.72
2023-03-10T11:03:12.999Z,57.81
2023-03-10T11:05:39.353Z,57.59
2023-03-10T11:08:05.938Z,57.55
2023-03-10T11:10:32.236Z,57.70
2023-03-10T11:12:58.661Z,57.63
2023-03-10T11:15:25.091Z,57.74
2023-03-10T11:17:51.442Z,57.89
2023-03-10T11:20:17.794Z,57.67
2023-03-10T11:22:44.283Z,57.90
2023-03-10T11:25:10.644Z,57.80
2023-03-10T11:27:37.594Z,57.80
2023-03-10T11:30:04.017Z,57.93
2023-03-10T11:32:30.468Z,58.13
2023-03-10T11:34:56.899Z,57.96
2023-03-10T11:37:23.685Z,58.01
2023-03-10T11:39:50.028Z,58.00
2023-03-10T11:42:16.420Z,58.15
2023-03-10T11:44:42.753Z,58.15
2023-03-10T11:47:09.153Z,58.34
2023-03-10T11:49:35.569Z,58.21
2023-03-10T11:52:01.914Z,58.27
2023-03-10T11:54:28.374Z,58.31
2023-03-10T11:56:55.510Z,58.40
2023-03-10T11:59:21.885Z,58.22
2023-03-10T12:01:48.182Z,58.30
2023-03-10T12:04:14.792Z,58.37
2023-03-10T12:06:41.242Z,58.35
2023-03-10T12:09:08.039Z,58.46
2023-03-10T12:11:35.369Z,58.47
2023-03-10T12:14:01.763Z,58.41
2023-03-10T12:16:28.385Z,58.41
2023-03-10T12:18:55.491Z,58.38
2023-03-10T12:21:22.056Z,58.37
2023-03-10T12:23:49.543Z,58.41
2023-03-10T12:26:16.047Z,58.45
2023-03-10T12:28:42.458Z,58.38
2023-03-10T12:31:09.542Z,58.43
2023-03-10T12:33:36.403Z,58.52
2023-03-10T12:36:02.812Z,58.55
2023-03-10T12:38:29.569Z,58.54
2023-03-10T12:40:56.178Z,58.44
2023-03-10T12:43:22.490Z,58.42
2023-03-10T12:45:48.977Z,58.43
2023-03-10T12:48:15.570Z,58.36
2023-03-10T12:50:41.939Z,58.43
2023-03-10T12:53:08.638Z,58.47
2023-03-10T12:55:34.917Z,58.48
2023-03-10T12:58:01.724Z,58.46
2023-03-10T13:00:28.108Z,58.46
2023-03-10T13:02:54.922Z,58.40
2023-03-10T13:05:21.810Z,58.66
2023-03-10T13:07:48.556Z,58.61
2023-03-10T13:10:14.927Z,58.56
2023-03-10T13:12:41.390Z,58.79
2023-03-10T13:15:07.749Z,58.85
2023-03-10T13:17:34.306Z,58.46
2023-03-10T13:20:01.290Z,58.93
2023-03-10T13:22:28.242Z,58.69
2023-03-10T13:24:54.967Z,58.93
2023-03-10T13:27:23.955Z,58.62
2023-03-10T13:29:51.424Z,58.64
2023-03-10T13:32:18.364Z,58.65
2023-03-10T13:34:44.778Z,58.73
2023-03-10T13:37:11.467Z,58.60
2023-03-10T13:39:38.823Z,58.51
2023-03-10T13:42:05.749Z,58.53
2023-03-10T13:44:32.440Z,58.78
2023-03-10T13:46:58.843Z,58.61
2023-03-10T13:49:25.526Z,58.71
2023-03-10T13:51:51.863Z,58.68
2023-03-10T13:54:18.777Z,58.52
2023-03-10T13:56:45.893Z,58.60
2023-03-10T13:59:12.690Z,58.56
2023-03-10T14:01:39.278Z,58.57
2023-03-10T14:04:05.776Z,58.87
2023-03-10T14:06:32.273Z,58.50
2023-03-10T14:08:58.694Z,58.62
2023-03-10T14:11:25.327Z,58.47
2023-03-10T14:13:51.962Z,58.51
2023-03-10T14:16:18.637Z,58.40
2023-03-10T14:18:45.506Z,58.74
2023-03-10T14:21:11.807Z,58.51
2023-03-10T14:23:38.697Z,58.55
2023-03-10T14:26:05.626Z,58.69
2023-03-10T14:28:32.110Z,58.62
2023-03-10T14:30:58.442Z,58.68
2023-03-10T14:33:24.985Z,58.87
2023-03-10T14:35:51.623Z,58.58
2023-03-10T14:38:18.635Z,58.72
2023-03-10T14:40:45.030Z,58.86
2023-03-10T14:43:11.863Z,58.61
2023-03-10T14:45:41.117Z,58.66
2023-03-10T14:48:08.647Z,58.65
2023-03-10T14:50:35.431Z,58.71
2023-03-10T14:53:02.379Z,58.57
2023-03-10T14:55:29.360Z,58.91
2023-03-10T14:57:56.373Z,58.64
2023-03-10T15:00:23.391Z,58.80
2023-03-10T15:02:49.852Z,58.74
2023-03-10T15:05:16.185Z,58.62
2023-03-10T15:07:42.568Z,58.71
2023-03-10T15:10:11.439Z,58.76
2023-03-10T15:12:38.639Z,58.65
2023-03-10T15:15:05.103Z,58.87
2023-03-10T15:17:31.944Z,58.61
2023-03-10T15:19:58.752Z,58.60
2023-03-10T15:22:25.509Z,58.74
2023-03-10T15:24:52.088Z,58.95
2023-03-10T15:27:19.060Z,59.01
2023-03-10T15:29:45.818Z,58.93
2023-03-10T15:32:12.212Z,58.72
2023-03-10T15:34:39.282Z,59.01
2023-03-10T15:37:05.608Z,59.00
2023-03-10T15:39:33.792Z,59.10
2023-03-10T15:42:01.619Z,58.95
2023-03-10T15:44:28.248Z,58.92
2023-03-10T15:46:54.907Z,59.27
2023-03-10T15:49:21.531Z,59.03
2023-03-10T15:51:47.961Z,59.00
2023-03-10T15:54:14.562Z,59.51
2023-03-10T15:56:41.537Z,59.82
2023-03-10T15:59:08.579Z,59.84
2023-03-10T16:01:34.993Z,59.91
2023-03-10T16:04:01.883Z,59.80
2023-03-10T16:06:28.552Z,59.86
2023-03-10T16:08:55.011Z,60.21
2023-03-10T16:11:21.403Z,60.29
2023-03-10T16:13:48.186Z,60.56
2023-03-10T16:16:14.873Z,60.77
2023-03-10T16:18:41.315Z,61.13
2023-03-10T16:21:07.833Z,61.08
2023-03-10T16:23:34.284Z,61.47
2023-03-10T16:26:01.197Z,61.65
2023-03-10T16:28:28.156Z,61.73
2023-03-10T16:30:54.920Z,61.56
2023-03-10T16:33:21.240Z,61.50
2023-03-10T16:35:48.040Z,61.59
2023-03-10T16:38:15.199Z,62.24
2023-03-10T16:40:41.544Z,62.39
2023-03-10T16:43:08.165Z,62.88
2023-03-10T16:45:35.159Z,63.04
2023-03-10T16:48:01.804Z,63.26
2023-03-10T16:50:28.395Z,63.32
2023-03-10T16:52:54.928Z,63.42
2023-03-10T16:55:21.517Z,63.40
2023-03-10T16:57:48.660Z,63.61
2023-03-10T17:00:15.120Z,63.56
2023-03-10T17:02:42.316Z,63.44
2023-03-10T17:05:08.948Z,63.63
2023-03-10T17:07:40.446Z,63.18
2023-03-10T17:10:09.777Z,63.39
2023-03-10T17:12:36.668Z,63.43
2023-03-10T17:15:03.091Z,63.59
2023-03-10T17:17:29.803Z,63.68
2023-03-10T17:19:56.224Z,63.29
2023-03-10T17:22:23.094Z,63.23
2023-03-10T17:24:49.662Z,63.16
2023-03-10T17:27:16.030Z,63.16
2023-03-10T17:29:42.397Z,62.67
2023-03-10T17:32:08.822Z,62.39
2023-03-10T17:34:35.850Z,62.35
2023-03-10T17:37:02.354Z,62.46
2023-03-10T17:39:29.910Z,62.16
2023-03-10T17:41:56.630Z,62.12
2023-03-10T17:44:22.992Z,61.82
2023-03-10T17:46:49.652Z,61.76
2023-03-10T17:49:16.187Z,61.57
2023-03-10T17:51:42.768Z,61.42
2023-03-10T17:54:09.578Z,61.40
2023-03-10T17:56:36.101Z,61.20
2023-03-10T17:59:02.961Z,61.28
2023-03-10T18:01:29.733Z,60.92
2023-03-10T18:03:56.174Z,61.08
2023-03-10T18:06:22.653Z,60.74
2023-03-10T18:08:49.075Z,60.89
2023-03-10T18:11:15.391Z,60.72
2023-03-10T18:13:41.741Z,60.71
2023-03-10T18:16:08.240Z,60.58
2023-03-10T18:18:35.157Z,60.60
2023-03-10T18:21:01.630Z,60.71
2023-03-10T18:23:27.984Z,60.57
2023-03-10T18:25:54.448Z,60.37
2023-03-10T18:28:20.962Z,60.52
2023-03-10T18:30:47.930Z,60.27
2023-03-10T18:33:14.300Z,60.20
2023-03-10T18:35:41.274Z,60.25
2023-03-10T18:38:07.752Z,60.30
2023-03-10T18:40:34.621Z,60.33
2023-03-10T18:43:01.095Z,60.39
2023-03-10T18:45:27.735Z,60.29
2023-03-10T18:47:54.134Z,60.25
2023-03-10T18:50:20.952Z,60.36
2023-03-10T18:52:47.600Z,60.03
2023-03-10T18:55:14.444Z,60.01
2023-03-10T18:57:40.813Z,60.07
2023-03-10T19:00:07.251Z,60.02
2023-03-10T19:02:34.082Z,60.10
2023-03-10T19:05:00.706Z,59.90
2023-03-10T19:07:27.776Z,60.08
2023-03-10T19:09:54.121Z,59.96
2023-03-10T19:12:20.504Z,60.16
2023-03-10T19:14:46.937Z,60.08
2023-03-10T19:17:13.565Z,59.87
2023-03-10T19:19:40.345Z,59.79
2023-03-10T19:22:07.553Z,60.04
2023-03-10T19:24:33.954Z,60.00
2023-03-10T19:27:00.483Z,59.97
2023-03-10T19:29:28.080Z,59.75
2023-03-10T19:31:54.979Z,59.87
2023-03-10T19:34:21.512Z,59.96
2023-03-10T19:36:48.921Z,59.83
2023-03-10T19:39:15.452Z,59.88
2023-03-10T19:41:41.748Z,59.81
2023-03-10T19:44:08.144Z,60.03
2023-03-10T19:46:34.681Z,59.76
2023-03-10T19:49:01.050Z,60.02
2023-03-10T19:51:27.660Z,59.78
2023-03-10T19:53:54.245Z,59.71
2023-03-10T19:56:20.635Z,59.86
2023-03-10T19:58:47.511Z,59.91
2023-03-10T20:01:14.126Z,59.75
2023-03-10T20:03:41.129Z,59.81
2023-03-10T20:06:07.876Z,59.90
2023-03-10T20:08:34.316Z,59.87
2023-03-10T20:11:00.679Z,59.79
2023-03-10T20:13:27.097Z,60.02
2023-03-10T20:15:53.481Z,59.80
2023-03-10T20:18:20.477Z,59.66
2023-03-10T20:20:46.839Z,59.70
2023-03-10T20:23:13.258Z,59.94
2023-03-10T20:25:39.692Z,59.68
2023-03-10T20:28:06.264Z,59.67
2023-03-10T20:30:32.648Z,59.74
2023-03-10T20:32:59.015Z,59.72
2023-03-10T20:35:25.406Z,59.77
2023-03-10T20:37:51.863Z,59.75
2023-03-10T20:40:18.164Z,59.96
2023-03-10T20:42:44.541Z,59.84
2023-03-10T20:45:10.910Z,59.83
2023-03-10T20:47:37.361Z,60.00
2023-03-10T20:50:04.319Z,59.91
2023-03-10T20:52:31.125Z,59.84
2023-03-10T20:54:57.929Z,59.73
2023-03-10T20:57:24.573Z,59.90
2023-03-10T20:59:51.518Z,59.94
2023-03-10T21:02:17.961Z,59.75
2023-03-10T21:04:44.803Z,59.69
2023-03-10T21:07:11.182Z,59.74
2023-03-10T21:09:37.872Z,59.85
2023-03-10T21:12:04.372Z,59.89
2023-03-10T21:14:30.754Z,59.78
2023-03-10T21:16:57.075Z,59.79
2023-03-10T21:19:23.508Z,59.92
2023-03-10T21:21:50.143Z,59.98
2023-03-10T21:24:16.531Z,59.91
2023-03-10T21:26:42.828Z,59.70
2023-03-10T21:29:10.152Z,59.77
2023-03-10T21:31:36.593Z,59.86
2023-03-10T21:34:02.912Z,60.00
2023-03-10T21:36:29.663Z,59.67
2023-03-10T21:38:56.150Z,59.83
2023-03-10T21:41:22.644Z,60.00
2023-03-10T21:43:50.020Z,59.86
2023-03-10T21:46:17.028Z,59.92
2023-03-10T21:48:44.373Z,59.99
2023-03-10T21:51:10.740Z,59.75
2023-03-10T21:53:37.626Z,59.90
2023-03-10T21:56:04.239Z,59.81
2023-03-10T21:58:30.571Z,59.89
2023-03-10T22:00:57.120Z,59.67
2023-03-10T22:03:23.873Z,59.79
2023-03-10T22:05:50.241Z,59.66
2023-03-10T22:08:16.882Z,59.90
2023-03-10T22:10:43.485Z,59.68
2023-03-10T22:13:09.950Z,59.92
2023-03-10T22:15:36.559Z,59.89
2023-03-10T22:18:03.132Z,59.90
2023-03-10T22:20:29.532Z,59.94
2023-03-10T22:22:56.662Z,59.65
2023-03-10T22:25:23.256Z,59.84
2023-03-10T22:27:49.545Z,59.93
2023-03-10T22:30:15.967Z,59.76
2023-03-10T22:32:42.457Z,59.88
2023-03-10T22:35:09.422Z,59.76
2023-03-10T22:37:35.755Z,59.87
2023-03-10T22:40:02.565Z,59.87
2023-03-10T22:42:28.902Z,59.87
2023-03-10T22:44:55.308Z,59.79
2023-03-10T22:47:21.644Z,59.80
2023-03-10T22:49:48.426Z,59.71
2023-03-10T22:52:14.741Z,59.75
2023-03-10T22:54:41.509Z,59.72
2023-03-10T22:57:08.190Z,59.87
2023-03-10T22:59:35.444Z,59.68
2023-03-10T23:02:01.768Z,59.72
2023-03-10T23:04:28.148Z,59.74
2023-03-10T23:06:54.482Z,59.68
2023-03-10T23:09:20.944Z,59.60
2023-03-10T23:11:47.692Z,59.75
2023-03-10T23:14:14.049Z,59.66
2023-03-10T23:16:41.157Z,59.88
2023-03-10T23:19:08.745Z,59.69
2023-03-10T23:21:35.146Z,59.74
2023-03-10T23:24:01.901Z,59.92
2023-03-10T23:26:28.305Z,59.74
2023-03-10T23:28:54.840Z,59.65
2023-03-10T23:31:21.670Z,59.78
2023-03-10T23:33:47.986Z,59.80
2023-03-10T23:36:14.377Z,59.75
2023-03-10T23:38:41.107Z,59.72
2023-03-10T23:41:07.568Z,59.78
2023-03-10T23:43:33.981Z,59.58
2023-03-10T23:46:00.702Z,59.61
2023-03-10T23:48:27.616Z,59.60
2023-03-10T23:50:53.962Z,59.63
2023-03-10T23:53:20.391Z,59.58
2023-03-10T23:55:47.233Z,59.70
2023-03-10T23:58:13.575Z,59.62
